sensor_id;sensor_type;location;lat;lon;timestamp;pressure;altitude;pressure_sealevel;temperature;humidity
83448;BME280;73376;45.472;-73.568;2024-03-08T00:00:33;102241.25;;;7.01;31.12
83448;BME280;73376;45.472;-73.568;2024-03-08T00:02:59;102223.41;;;6.81;31.30
83448;BME280;73376;45.472;-73.568;2024-03-08T00:05:26;102234.28;;;6.81;31.30
83448;BME280;73376;45.472;-73.568;2024-03-08T00:07:52;102232.78;;;6.69;31.35
83448;BME280;73376;45.472;-73.568;2024-03-08T00:10:21;102238.69;;;6.64;31.78
83448;BME280;73376;45.472;-73.568;2024-03-08T00:12:47;102237.97;;;6.62;31.86
83448;BME280;73376;45.472;-73.568;2024-03-08T00:15:14;102248.84;;;6.62;31.50
83448;BME280;73376;45.472;-73.568;2024-03-08T00:17:43;102258.56;;;6.64;32.09
83448;BME280;73376;45.472;-73.568;2024-03-08T00:20:10;102256.84;;;6.63;32.26
83448;BME280;73376;45.472;-73.568;2024-03-08T00:22:37;102256.44;;;6.58;32.34
83448;BME280;73376;45.472;-73.568;2024-03-08T00:25:07;102234.84;;;6.39;32.41
83448;BME280;73376;45.472;-73.568;2024-03-08T00:27:38;102269.22;;;6.48;32.61
83448;BME280;73376;45.472;-73.568;2024-03-08T00:30:07;102273.25;;;6.44;32.81
83448;BME280;73376;45.472;-73.568;2024-03-08T00:32:33;102264.19;;;6.35;32.89
83448;BME280;73376;45.472;-73.568;2024-03-08T00:34:59;102268.03;;;6.33;32.74
83448;BME280;73376;45.472;-73.568;2024-03-08T00:37:26;102276.88;;;6.35;32.90
83448;BME280;73376;45.472;-73.568;2024-03-08T00:39:52;102263.81;;;6.21;32.83
83448;BME280;73376;45.472;-73.568;2024-03-08T00:42:19;102277.69;;;6.18;33.04
83448;BME280;73376;45.472;-73.568;2024-03-08T00:44:46;102273.59;;;6.04;33.33
83448;BME280;73376;45.472;-73.568;2024-03-08T00:47:12;102281.06;;;6.02;33.59
83448;BME280;73376;45.472;-73.568;2024-03-08T00:49:38;102261.31;;;5.90;33.59
83448;BME280;73376;45.472;-73.568;2024-03-08T00:52:07;102286.91;;;5.97;33.93
83448;BME280;73376;45.472;-73.568;2024-03-08T00:54:34;102275.34;;;5.85;33.92
83448;BME280;73376;45.472;-73.568;2024-03-08T00:57:02;102278.53;;;5.71;34.05
83448;BME280;73376;45.472;-73.568;2024-03-08T00:59:32;102273.97;;;5.62;34.15
83448;BME280;73376;45.472;-73.568;2024-03-08T01:01:59;102276.41;;;5.55;34.04
83448;BME280;73376;45.472;-73.568;2024-03-08T01:04:26;102306.25;;;5.65;34.28
83448;BME280;73376;45.472;-73.568;2024-03-08T01:06:57;102307.41;;;5.53;34.24
83448;BME280;73376;45.472;-73.568;2024-03-08T01:09:24;102311.41;;;5.49;34.34
83448;BME280;73376;45.472;-73.568;2024-03-08T01:11:50;102303.56;;;5.36;34.46
83448;BME280;73376;45.472;-73.568;2024-03-08T01:14:20;102310.72;;;5.27;34.53
83448;BME280;73376;45.472;-73.568;2024-03-08T01:16:51;102300.56;;;5.19;34.39
83448;BME280;73376;45.472;-73.568;2024-03-08T01:19:20;102311.00;;;5.14;34.50
83448;BME280;73376;45.472;-73.568;2024-03-08T01:21:46;102315.56;;;5.14;34.72
83448;BME280;73376;45.472;-73.568;2024-03-08T01:24:12;102296.44;;;4.96;34.75
83448;BME280;73376;45.472;-73.568;2024-03-08T01:26:38;102327.97;;;5.07;35.03
83448;BME280;73376;45.472;-73.568;2024-03-08T01:29:04;102322.81;;;4.94;35.11
83448;BME280;73376;45.472;-73.568;2024-03-08T01:31:33;102332.94;;;4.92;35.22
83448;BME280;73376;45.472;-73.568;2024-03-08T01:33:59;102339.19;;;4.92;35.08
83448;BME280;73376;45.472;-73.568;2024-03-08T01:36:28;102340.34;;;4.80;35.19
83448;BME280;73376;45.472;-73.568;2024-03-08T01:38:54;102356.75;;;4.88;35.25
83448;BME280;73376;45.472;-73.568;2024-03-08T01:41:22;102337.28;;;4.64;35.32
83448;BME280;73376;45.472;-73.568;2024-03-08T01:43:49;102370.56;;;4.76;35.39
83448;BME280;73376;45.472;-73.568;2024-03-08T01:46:20;102372.53;;;4.73;35.56
83448;BME280;73376;45.472;-73.568;2024-03-08T01:48:52;102375.78;;;4.67;35.59
83448;BME280;73376;45.472;-73.568;2024-03-08T01:51:21;102363.75;;;4.50;35.75
83448;BME280;73376;45.472;-73.568;2024-03-08T01:53:48;102382.44;;;4.54;35.89
83448;BME280;73376;45.472;-73.568;2024-03-08T01:56:14;102382.00;;;4.48;35.67
83448;BME280;73376;45.472;-73.568;2024-03-08T01:58:44;102395.94;;;4.44;35.81
83448;BME280;73376;45.472;-73.568;2024-03-08T02:01:12;102367.78;;;4.25;35.80
83448;BME280;73376;45.472;-73.568;2024-03-08T02:03:41;102392.47;;;4.32;35.84
83448;BME280;73376;45.472;-73.568;2024-03-08T02:06:13;102371.28;;;4.16;35.93
83448;BME280;73376;45.472;-73.568;2024-03-08T02:08:45;102404.09;;;4.23;35.85
83448;BME280;73376;45.472;-73.568;2024-03-08T02:11:12;102359.66;;;3.95;35.61
83448;BME280;73376;45.472;-73.568;2024-03-08T02:13:39;102385.03;;;4.03;35.62
83448;BME280;73376;45.472;-73.568;2024-03-08T02:16:05;102399.75;;;4.11;35.65
83448;BME280;73376;45.472;-73.568;2024-03-08T02:18:33;102387.56;;;3.95;35.58
83448;BME280;73376;45.472;-73.568;2024-03-08T02:21:06;102408.78;;;4.00;35.65
83448;BME280;73376;45.472;-73.568;2024-03-08T02:23:33;102408.72;;;3.90;35.71
83448;BME280;73376;45.472;-73.568;2024-03-08T02:26:03;102401.53;;;3.79;35.65
83448;BME280;73376;45.472;-73.568;2024-03-08T02:28:33;102421.91;;;3.84;35.92
83448;BME280;73376;45.472;-73.568;2024-03-08T02:30:59;102409.31;;;3.73;35.95
83448;BME280;73376;45.472;-73.568;2024-03-08T02:33:27;102428.00;;;3.76;36.11
83448;BME280;73376;45.472;-73.568;2024-03-08T02:35:55;102426.69;;;3.70;35.99
83448;BME280;73376;45.472;-73.568;2024-03-08T02:38:22;102422.03;;;3.61;36.07
83448;BME280;73376;45.472;-73.568;2024-03-08T02:40:51;102429.41;;;3.59;36.08
83448;BME280;73376;45.472;-73.568;2024-03-08T02:43:18;102428.09;;;3.53;36.04
83448;BME280;73376;45.472;-73.568;2024-03-08T02:45:47;102408.13;;;3.34;36.39
83448;BME280;73376;45.472;-73.568;2024-03-08T02:48:14;102434.78;;;3.38;36.45
83448;BME280;73376;45.472;-73.568;2024-03-08T02:50:41;102437.88;;;3.34;36.35
83448;BME280;73376;45.472;-73.568;2024-03-08T02:53:11;102434.69;;;3.28;36.62
83448;BME280;73376;45.472;-73.568;2024-03-08T02:55:40;102436.78;;;3.25;36.43
83448;BME280;73376;45.472;-73.568;2024-03-08T02:58:07;102450.88;;;3.28;36.74
83448;BME280;73376;45.472;-73.568;2024-03-08T03:00:37;102441.47;;;3.23;36.55
83448;BME280;73376;45.472;-73.568;2024-03-08T03:03:04;102434.81;;;3.16;36.64
83448;BME280;73376;45.472;-73.568;2024-03-08T03:05:32;102400.63;;;2.94;36.36
83448;BME280;73376;45.472;-73.568;2024-03-08T03:07:59;102445.91;;;3.13;36.20
83448;BME280;73376;45.472;-73.568;2024-03-08T03:10:28;102418.53;;;2.95;36.33
83448;BME280;73376;45.472;-73.568;2024-03-08T03:12:54;102431.19;;;2.94;36.65
83448;BME280;73376;45.472;-73.568;2024-03-08T03:15:19;102450.09;;;2.94;36.43
83448;BME280;73376;45.472;-73.568;2024-03-08T03:17:47;102438.69;;;2.79;36.52
83448;BME280;73376;45.472;-73.568;2024-03-08T03:20:13;102437.94;;;2.77;36.86
83448;BME280;73376;45.472;-73.568;2024-03-08T03:22:49;102444.44;;;2.75;37.03
83448;BME280;73376;45.472;-73.568;2024-03-08T03:25:21;102446.78;;;2.68;37.26
83448;BME280;73376;45.472;-73.568;2024-03-08T03:27:59;102434.28;;;2.56;37.22
83448;BME280;73376;45.472;-73.568;2024-03-08T03:30:25;102432.06;;;2.50;37.88
83448;BME280;73376;45.472;-73.568;2024-03-08T03:32:52;102433.78;;;2.51;37.70
83448;BME280;73376;45.472;-73.568;2024-03-08T03:35:21;102445.56;;;2.50;37.49
83448;BME280;73376;45.472;-73.568;2024-03-08T03:37:48;102443.22;;;2.45;37.76
83448;BME280;73376;45.472;-73.568;2024-03-08T03:40:32;102450.72;;;2.42;37.79
83448;BME280;73376;45.472;-73.568;2024-03-08T03:42:58;102406.50;;;2.20;37.98
83448;BME280;73376;45.472;-73.568;2024-03-08T03:45:24;102436.22;;;2.31;38.31
83448;BME280;73376;45.472;-73.568;2024-03-08T03:47:50;102431.66;;;2.21;38.08
83448;BME280;73376;45.472;-73.568;2024-03-08T03:50:18;102433.50;;;2.20;38.24
83448;BME280;73376;45.472;-73.568;2024-03-08T03:52:46;102431.41;;;2.12;38.45
83448;BME280;73376;45.472;-73.568;2024-03-08T03:55:13;102447.50;;;2.25;38.36
83448;BME280;73376;45.472;-73.568;2024-03-08T03:57:39;102423.69;;;2.08;38.50
83448;BME280;73376;45.472;-73.568;2024-03-08T04:00:06;102435.00;;;2.24;38.30
83448;BME280;73376;45.472;-73.568;2024-03-08T04:02:39;102427.72;;;2.13;38.47
83448;BME280;73376;45.472;-73.568;2024-03-08T04:05:09;102444.53;;;2.17;38.59
83448;BME280;73376;45.472;-73.568;2024-03-08T04:07:36;102439.38;;;2.14;38.37
83448;BME280;73376;45.472;-73.568;2024-03-08T04:10:02;102445.25;;;2.08;38.47
83448;BME280;73376;45.472;-73.568;2024-03-08T04:12:29;102406.19;;;1.78;38.35
83448;BME280;73376;45.472;-73.568;2024-03-08T04:14:55;102427.38;;;1.83;38.42
83448;BME280;73376;45.472;-73.568;2024-03-08T04:17:22;102450.22;;;1.90;38.39
83448;BME280;73376;45.472;-73.568;2024-03-08T04:19:50;102439.91;;;1.84;38.35
83448;BME280;73376;45.472;-73.568;2024-03-08T04:22:16;102434.38;;;1.74;38.20
83448;BME280;73376;45.472;-73.568;2024-03-08T04:24:44;102459.41;;;1.87;38.07
83448;BME280;73376;45.472;-73.568;2024-03-08T04:27:10;102468.38;;;1.88;38.13
83448;BME280;73376;45.472;-73.568;2024-03-08T04:29:36;102451.00;;;1.68;38.32
83448;BME280;73376;45.472;-73.568;2024-03-08T04:32:06;102467.97;;;1.81;38.66
83448;BME280;73376;45.472;-73.568;2024-03-08T04:34:35;102448.75;;;1.62;38.66
83448;BME280;73376;45.472;-73.568;2024-03-08T04:37:01;102460.56;;;1.72;38.62
83448;BME280;73376;45.472;-73.568;2024-03-08T04:39:28;102466.66;;;1.63;38.59
83448;BME280;73376;45.472;-73.568;2024-03-08T04:41:56;102471.19;;;1.62;39.10
83448;BME280;73376;45.472;-73.568;2024-03-08T04:44:25;102462.19;;;1.51;39.49
83448;BME280;73376;45.472;-73.568;2024-03-08T04:46:51;102455.53;;;1.44;39.27
83448;BME280;73376;45.472;-73.568;2024-03-08T04:49:17;102459.69;;;1.36;39.67
83448;BME280;73376;45.472;-73.568;2024-03-08T04:51:43;102486.03;;;1.44;39.83
83448;BME280;73376;45.472;-73.568;2024-03-08T04:54:10;102456.16;;;1.23;39.86
83448;BME280;73376;45.472;-73.568;2024-03-08T04:56:36;102456.91;;;1.25;40.33
83448;BME280;73376;45.472;-73.568;2024-03-08T04:59:02;102455.75;;;1.16;40.13
83448;BME280;73376;45.472;-73.568;2024-03-08T05:01:28;102494.53;;;1.27;40.44
83448;BME280;73376;45.472;-73.568;2024-03-08T05:03:54;102451.38;;;1.03;40.45
83448;BME280;73376;45.472;-73.568;2024-03-08T05:06:21;102453.31;;;1.01;40.85
83448;BME280;73376;45.472;-73.568;2024-03-08T05:08:47;102472.50;;;1.09;40.64
83448;BME280;73376;45.472;-73.568;2024-03-08T05:11:13;102484.63;;;1.14;40.84
83448;BME280;73376;45.472;-73.568;2024-03-08T05:13:40;102477.47;;;1.02;40.83
83448;BME280;73376;45.472;-73.568;2024-03-08T05:16:06;102487.25;;;1.03;41.07
83448;BME280;73376;45.472;-73.568;2024-03-08T05:18:38;102484.22;;;0.95;40.84
83448;BME280;73376;45.472;-73.568;2024-03-08T05:21:04;102500.94;;;1.00;40.99
83448;BME280;73376;45.472;-73.568;2024-03-08T05:23:30;102507.81;;;0.91;41.18
83448;BME280;73376;45.472;-73.568;2024-03-08T05:25:56;102482.00;;;0.76;41.18
83448;BME280;73376;45.472;-73.568;2024-03-08T05:28:23;102486.97;;;0.69;41.63
83448;BME280;73376;45.472;-73.568;2024-03-08T05:30:49;102496.13;;;0.80;41.84
83448;BME280;73376;45.472;-73.568;2024-03-08T05:33:17;102507.00;;;0.78;41.63
83448;BME280;73376;45.472;-73.568;2024-03-08T05:35:47;102504.97;;;0.69;41.72
83448;BME280;73376;45.472;-73.568;2024-03-08T05:38:14;102488.03;;;0.54;41.58
83448;BME280;73376;45.472;-73.568;2024-03-08T05:40:40;102473.84;;;0.39;42.13
83448;BME280;73376;45.472;-73.568;2024-03-08T05:43:08;102517.44;;;0.57;42.20
83448;BME280;73376;45.472;-73.568;2024-03-08T05:45:34;102520.25;;;0.56;42.04
83448;BME280;73376;45.472;-73.568;2024-03-08T05:48:03;102490.13;;;0.38;42.48
83448;BME280;73376;45.472;-73.568;2024-03-08T05:50:29;102503.44;;;0.39;42.50
83448;BME280;73376;45.472;-73.568;2024-03-08T05:52:57;102506.47;;;0.35;42.42
83448;BME280;73376;45.472;-73.568;2024-03-08T05:55:23;102524.00;;;0.40;42.57
83448;BME280;73376;45.472;-73.568;2024-03-08T05:57:50;102534.88;;;0.39;42.56
83448;BME280;73376;45.472;-73.568;2024-03-08T06:00:18;102538.53;;;0.38;42.90
83448;BME280;73376;45.472;-73.568;2024-03-08T06:02:44;102542.16;;;0.37;42.93
83448;BME280;73376;45.472;-73.568;2024-03-08T06:05:11;102520.53;;;0.26;42.92
83448;BME280;73376;45.472;-73.568;2024-03-08T06:07:40;102528.19;;;0.32;42.92
83448;BME280;73376;45.472;-73.568;2024-03-08T06:10:10;102523.56;;;0.21;43.10
83448;BME280;73376;45.472;-73.568;2024-03-08T06:12:38;102499.72;;;0.02;43.28
83448;BME280;73376;45.472;-73.568;2024-03-08T06:15:07;102512.00;;;0.06;43.17
83448;BME280;73376;45.472;-73.568;2024-03-08T06:17:43;102539.47;;;0.24;42.98
83448;BME280;73376;45.472;-73.568;2024-03-08T06:20:09;102529.34;;;0.15;42.93
83448;BME280;73376;45.472;-73.568;2024-03-08T06:22:41;102522.13;;;0.15;42.83
83448;BME280;73376;45.472;-73.568;2024-03-08T06:25:10;102534.72;;;0.15;42.52
83448;BME280;73376;45.472;-73.568;2024-03-08T06:27:49;102524.13;;;-0.01;42.50
83448;BME280;73376;45.472;-73.568;2024-03-08T06:30:15;102526.75;;;0.01;42.45
83448;BME280;73376;45.472;-73.568;2024-03-08T06:32:41;102517.44;;;-0.08;42.65
83448;BME280;73376;45.472;-73.568;2024-03-08T06:35:08;102543.06;;;-0.03;42.44
83448;BME280;73376;45.472;-73.568;2024-03-08T06:37:36;102522.13;;;-0.25;42.49
83448;BME280;73376;45.472;-73.568;2024-03-08T06:40:02;102537.06;;;-0.20;42.46
83448;BME280;73376;45.472;-73.568;2024-03-08T06:42:33;102539.88;;;-0.22;42.46
83448;BME280;73376;45.472;-73.568;2024-03-08T06:45:01;102553.13;;;-0.19;42.58
83448;BME280;73376;45.472;-73.568;2024-03-08T06:47:31;102555.88;;;-0.20;42.54
83448;BME280;73376;45.472;-73.568;2024-03-08T06:50:00;102565.78;;;-0.21;42.22
83448;BME280;73376;45.472;-73.568;2024-03-08T06:52:26;102570.41;;;-0.23;42.33
83448;BME280;73376;45.472;-73.568;2024-03-08T06:54:52;102543.13;;;-0.44;42.24
83448;BME280;73376;45.472;-73.568;2024-03-08T06:57:18;102560.16;;;-0.31;42.61
83448;BME280;73376;45.472;-73.568;2024-03-08T06:59:48;102562.84;;;-0.31;42.52
83448;BME280;73376;45.472;-73.568;2024-03-08T07:02:13;102530.84;;;-0.48;42.39
83448;BME280;73376;45.472;-73.568;2024-03-08T07:04:39;102556.81;;;-0.34;42.12
83448;BME280;73376;45.472;-73.568;2024-03-08T07:07:06;102550.03;;;-0.40;42.07
83448;BME280;73376;45.472;-73.568;2024-03-08T07:09:36;102515.44;;;-0.59;41.95
83448;BME280;73376;45.472;-73.568;2024-03-08T07:12:02;102547.63;;;-0.44;42.10
83448;BME280;73376;45.472;-73.568;2024-03-08T07:14:28;102543.34;;;-0.47;42.31
83448;BME280;73376;45.472;-73.568;2024-03-08T07:16:56;102550.81;;;-0.52;42.65
83448;BME280;73376;45.472;-73.568;2024-03-08T07:19:22;102556.19;;;-0.52;42.54
83448;BME280;73376;45.472;-73.568;2024-03-08T07:21:49;102532.91;;;-0.66;42.56
83448;BME280;73376;45.472;-73.568;2024-03-08T07:24:15;102536.16;;;-0.61;43.08
83448;BME280;73376;45.472;-73.568;2024-03-08T07:27:04;102539.91;;;-0.63;42.73
83448;BME280;73376;45.472;-73.568;2024-03-08T07:29:33;102542.78;;;-0.66;43.05
83448;BME280;73376;45.472;-73.568;2024-03-08T07:32:02;102538.66;;;-0.72;43.36
83448;BME280;73376;45.472;-73.568;2024-03-08T07:34:47;102534.16;;;-0.72;43.40
83448;BME280;73376;45.472;-73.568;2024-03-08T07:37:14;102529.19;;;-0.78;43.42
83448;BME280;73376;45.472;-73.568;2024-03-08T07:39:40;102531.00;;;-0.78;43.47
83448;BME280;73376;45.472;-73.568;2024-03-08T07:42:06;102526.03;;;-0.84;43.94
83448;BME280;73376;45.472;-73.568;2024-03-08T07:44:32;102527.16;;;-0.88;43.87
83448;BME280;73376;45.472;-73.568;2024-03-08T07:46:59;102529.13;;;-0.90;44.24
83448;BME280;73376;45.472;-73.568;2024-03-08T07:49:25;102516.06;;;-0.97;43.93
83448;BME280;73376;45.472;-73.568;2024-03-08T07:51:51;102516.94;;;-0.96;44.08
83448;BME280;73376;45.472;-73.568;2024-03-08T07:54:17;102501.03;;;-1.13;44.44
83448;BME280;73376;45.472;-73.568;2024-03-08T07:56:43;102528.06;;;-1.02;44.46
83448;BME280;73376;45.472;-73.568;2024-03-08T07:59:09;102526.44;;;-1.05;44.65
83448;BME280;73376;45.472;-73.568;2024-03-08T08:01:37;102525.78;;;-1.08;44.55
83448;BME280;73376;45.472;-73.568;2024-03-08T08:04:03;102515.03;;;-1.23;44.64
83448;BME280;73376;45.472;-73.568;2024-03-08T08:06:33;102516.84;;;-1.23;44.70
83448;BME280;73376;45.472;-73.568;2024-03-08T08:08:59;102528.25;;;-1.20;44.76
83448;BME280;73376;45.472;-73.568;2024-03-08T08:11:28;102496.25;;;-1.37;44.91
83448;BME280;73376;45.472;-73.568;2024-03-08T08:13:54;102512.34;;;-1.37;44.98
83448;BME280;73376;45.472;-73.568;2024-03-08T08:16:23;102527.59;;;-1.37;45.03
83448;BME280;73376;45.472;-73.568;2024-03-08T08:18:51;102539.28;;;-1.38;45.15
83448;BME280;73376;45.472;-73.568;2024-03-08T08:21:21;102552.41;;;-1.34;44.76
83448;BME280;73376;45.472;-73.568;2024-03-08T08:23:47;102554.31;;;-1.36;45.08
83448;BME280;73376;45.472;-73.568;2024-03-08T08:26:13;102508.59;;;-1.63;44.93
83448;BME280;73376;45.472;-73.568;2024-03-08T08:28:39;102526.91;;;-1.55;45.02
83448;BME280;73376;45.472;-73.568;2024-03-08T08:31:08;102520.09;;;-1.61;45.13
83448;BME280;73376;45.472;-73.568;2024-03-08T08:33:34;102537.53;;;-1.54;45.02
83448;BME280;73376;45.472;-73.568;2024-03-08T08:36:01;102548.06;;;-1.51;45.19
83448;BME280;73376;45.472;-73.568;2024-03-08T08:38:29;102536.28;;;-1.62;45.36
83448;BME280;73376;45.472;-73.568;2024-03-08T08:40:54;102539.22;;;-1.67;45.62
83448;BME280;73376;45.472;-73.568;2024-03-08T08:43:23;102559.16;;;-1.57;45.77
83448;BME280;73376;45.472;-73.568;2024-03-08T08:45:51;102560.22;;;-1.59;45.97
83448;BME280;73376;45.472;-73.568;2024-03-08T08:48:20;102539.78;;;-1.76;46.04
83448;BME280;73376;45.472;-73.568;2024-03-08T08:50:46;102551.78;;;-1.68;46.52
83448;BME280;73376;45.472;-73.568;2024-03-08T08:53:12;102531.94;;;-1.79;46.66
83448;BME280;73376;45.472;-73.568;2024-03-08T08:55:40;102539.97;;;-1.79;46.97
83448;BME280;73376;45.472;-73.568;2024-03-08T08:58:09;102565.28;;;-1.69;47.03
83448;BME280;73376;45.472;-73.568;2024-03-08T09:00:34;102557.19;;;-1.83;47.15
83448;BME280;73376;45.472;-73.568;2024-03-08T09:03:00;102578.94;;;-1.74;47.51
83448;BME280;73376;45.472;-73.568;2024-03-08T09:05:27;102572.03;;;-1.78;47.69
83448;BME280;73376;45.472;-73.568;2024-03-08T09:07:54;102558.13;;;-1.84;47.98
83448;BME280;73376;45.472;-73.568;2024-03-08T09:10:20;102580.19;;;-1.79;48.04
83448;BME280;73376;45.472;-73.568;2024-03-08T09:12:47;102572.31;;;-1.82;47.97
83448;BME280;73376;45.472;-73.568;2024-03-08T09:15:15;102581.41;;;-1.85;48.33
83448;BME280;73376;45.472;-73.568;2024-03-08T09:17:46;102586.25;;;-1.92;48.48
83448;BME280;73376;45.472;-73.568;2024-03-08T09:20:14;102556.56;;;-2.03;49.05
83448;BME280;73376;45.472;-73.568;2024-03-08T09:22:46;102574.69;;;-1.92;48.76
83448;BME280;73376;45.472;-73.568;2024-03-08T09:25:14;102577.53;;;-1.95;48.71
83448;BME280;73376;45.472;-73.568;2024-03-08T09:27:40;102578.69;;;-1.99;48.82
83448;BME280;73376;45.472;-73.568;2024-03-08T09:30:07;102585.84;;;-2.00;49.26
83448;BME280;73376;45.472;-73.568;2024-03-08T09:32:33;102586.38;;;-2.09;49.20
83448;BME280;73376;45.472;-73.568;2024-03-08T09:34:59;102577.03;;;-2.18;49.52
83448;BME280;73376;45.472;-73.568;2024-03-08T09:37:26;102595.22;;;-2.07;49.82
83448;BME280;73376;45.472;-73.568;2024-03-08T09:39:52;102589.22;;;-2.12;49.58
83448;BME280;73376;45.472;-73.568;2024-03-08T09:42:21;102566.19;;;-2.30;49.81
83448;BME280;73376;45.472;-73.568;2024-03-08T09:44:47;102598.31;;;-2.15;50.19
83448;BME280;73376;45.472;-73.568;2024-03-08T09:47:17;102594.19;;;-2.20;50.84
83448;BME280;73376;45.472;-73.568;2024-03-08T09:49:43;102583.13;;;-2.30;50.47
83448;BME280;73376;45.472;-73.568;2024-03-08T09:52:10;102586.25;;;-2.38;50.84
83448;BME280;73376;45.472;-73.568;2024-03-08T09:54:40;102619.41;;;-2.24;50.85
83448;BME280;73376;45.472;-73.568;2024-03-08T09:57:10;102605.69;;;-2.34;50.94
83448;BME280;73376;45.472;-73.568;2024-03-08T09:59:36;102603.94;;;-2.35;51.32
83448;BME280;73376;45.472;-73.568;2024-03-08T10:02:02;102602.31;;;-2.38;51.41
83448;BME280;73376;45.472;-73.568;2024-03-08T10:04:31;102618.81;;;-2.29;51.81
83448;BME280;73376;45.472;-73.568;2024-03-08T10:06:58;102595.66;;;-2.46;51.96
83448;BME280;73376;45.472;-73.568;2024-03-08T10:09:28;102587.63;;;-2.46;52.03
83448;BME280;73376;45.472;-73.568;2024-03-08T10:11:56;102617.25;;;-2.33;52.54
83448;BME280;73376;45.472;-73.568;2024-03-08T10:14:25;102615.50;;;-2.34;52.83
83448;BME280;73376;45.472;-73.568;2024-03-08T10:16:57;102606.03;;;-2.40;52.88
83448;BME280;73376;45.472;-73.568;2024-03-08T10:19:27;102614.91;;;-2.40;53.18
83448;BME280;73376;45.472;-73.568;2024-03-08T10:21:56;102623.06;;;-2.41;53.27
83448;BME280;73376;45.472;-73.568;2024-03-08T10:24:24;102621.41;;;-2.44;53.28
83448;BME280;73376;45.472;-73.568;2024-03-08T10:27:03;102619.75;;;-2.46;53.32
83448;BME280;73376;45.472;-73.568;2024-03-08T10:29:32;102611.28;;;-2.54;53.54
83448;BME280;73376;45.472;-73.568;2024-03-08T10:31:58;102603.59;;;-2.60;54.09
83448;BME280;73376;45.472;-73.568;2024-03-08T10:34:25;102612.38;;;-2.58;54.21
83448;BME280;73376;45.472;-73.568;2024-03-08T10:36:51;102633.41;;;-2.51;54.50
83448;BME280;73376;45.472;-73.568;2024-03-08T10:39:22;102628.91;;;-2.50;54.34
83448;BME280;73376;45.472;-73.568;2024-03-08T10:42:14;102622.00;;;-2.54;54.89
83448;BME280;73376;45.472;-73.568;2024-03-08T10:47:49;102634.50;;;-2.55;55.12
83448;BME280;73376;45.472;-73.568;2024-03-08T10:50:21;102612.28;;;-2.73;55.61
83448;BME280;73376;45.472;-73.568;2024-03-08T10:52:51;102629.91;;;-2.69;55.15
83448;BME280;73376;45.472;-73.568;2024-03-08T10:55:18;102649.88;;;-2.58;56.17
83448;BME280;73376;45.472;-73.568;2024-03-08T10:57:46;102653.78;;;-2.64;56.05
83448;BME280;73376;45.472;-73.568;2024-03-08T11:00:15;102659.81;;;-2.60;56.38
83448;BME280;73376;45.472;-73.568;2024-03-08T11:02:45;102658.16;;;-2.63;56.24
83448;BME280;73376;45.472;-73.568;2024-03-08T11:05:31;102652.75;;;-2.62;56.47
83448;BME280;73376;45.472;-73.568;2024-03-08T11:08:02;102642.69;;;-2.74;56.08
83448;BME280;73376;45.472;-73.568;2024-03-08T11:10:29;102644.69;;;-2.77;56.55
83448;BME280;73376;45.472;-73.568;2024-03-08T11:12:55;102665.94;;;-2.74;57.54
83448;BME280;73376;45.472;-73.568;2024-03-08T11:15:24;102683.44;;;-2.69;57.01
83448;BME280;73376;45.472;-73.568;2024-03-08T11:17:53;102690.56;;;-2.68;56.91
83448;BME280;73376;45.472;-73.568;2024-03-08T11:20:23;102688.75;;;-2.67;57.17
83448;BME280;73376;45.472;-73.568;2024-03-08T11:22:54;102688.75;;;-2.67;57.07
83448;BME280;73376;45.472;-73.568;2024-03-08T11:25:40;102678.25;;;-2.72;56.88
83448;BME280;73376;45.472;-73.568;2024-03-08T11:28:21;102689.59;;;-2.67;57.11
83448;BME280;73376;45.472;-73.568;2024-03-08T11:33:28;102678.44;;;-2.75;56.70
83448;BME280;73376;45.472;-73.568;2024-03-08T11:36:21;102674.81;;;-2.74;57.25
83448;BME280;73376;45.472;-73.568;2024-03-08T11:38:48;102691.09;;;-2.61;57.45
83448;BME280;73376;45.472;-73.568;2024-03-08T11:41:19;102686.75;;;-2.64;57.02
83448;BME280;73376;45.472;-73.568;2024-03-08T11:43:46;102700.59;;;-2.55;57.09
83448;BME280;73376;45.472;-73.568;2024-03-08T11:46:15;102672.69;;;-2.67;56.89
83448;BME280;73376;45.472;-73.568;2024-03-08T11:48:43;102692.31;;;-2.51;57.19
83448;BME280;73376;45.472;-73.568;2024-03-08T11:51:13;102696.63;;;-2.48;57.28
83448;BME280;73376;45.472;-73.568;2024-03-08T11:53:41;102677.53;;;-2.58;57.13
83448;BME280;73376;45.472;-73.568;2024-03-08T11:56:12;102676.59;;;-2.57;57.22
83448;BME280;73376;45.472;-73.568;2024-03-08T11:58:39;102701.31;;;-2.36;57.25
83448;BME280;73376;45.472;-73.568;2024-03-08T12:01:09;102707.22;;;-2.29;57.48
83448;BME280;73376;45.472;-73.568;2024-03-08T12:03:40;102703.34;;;-2.24;57.32
83448;BME280;73376;45.472;-73.568;2024-03-08T12:06:08;102696.22;;;-2.25;57.56
83448;BME280;73376;45.472;-73.568;2024-03-08T12:08:38;102699.25;;;-2.15;57.58
83448;BME280;73376;45.472;-73.568;2024-03-08T12:11:04;102716.41;;;-2.02;57.36
83448;BME280;73376;45.472;-73.568;2024-03-08T12:13:32;102703.44;;;-1.94;57.17
83448;BME280;73376;45.472;-73.568;2024-03-08T12:16:00;102694.44;;;-1.93;57.04
83448;BME280;73376;45.472;-73.568;2024-03-08T12:18:26;102708.09;;;-1.65;56.94
83448;BME280;73376;45.472;-73.568;2024-03-08T12:23:36;102714.09;;;-1.16;56.41
83448;BME280;73376;45.472;-73.568;2024-03-08T12:26:29;102708.81;;;-0.73;56.40
83448;BME280;73376;45.472;-73.568;2024-03-08T12:29:21;102705.25;;;-0.02;55.03
83448;BME280;73376;45.472;-73.568;2024-03-08T12:31:52;102710.66;;;0.92;53.63
83448;BME280;73376;45.472;-73.568;2024-03-08T12:34:21;102714.84;;;1.85;51.31
83448;BME280;73376;45.472;-73.568;2024-03-08T12:36:48;102716.19;;;2.65;49.23
83448;BME280;73376;45.472;-73.568;2024-03-08T12:39:16;102723.91;;;3.28;48.35
83448;BME280;73376;45.472;-73.568;2024-03-08T12:41:43;102705.50;;;3.78;46.73
83448;BME280;73376;45.472;-73.568;2024-03-08T12:44:09;102713.66;;;4.33;45.58
83448;BME280;73376;45.472;-73.568;2024-03-08T12:46:37;102715.97;;;4.81;44.68
83448;BME280;73376;45.472;-73.568;2024-03-08T12:49:10;102711.19;;;5.27;43.81